Absecon Highlands, NJ

12:52 PM EDT on August 27, 2016 (GMT -0400)
Galloway Twp Police Dept | | Change Station

Elev 30 ft 39.46 °N, 74.50 °W | Updated 12 seconds ago

Clear
Clear
82.2 °F
Feels Like 86 °F
N
9.0
Wind Variable Wind from East
Gusts 11.0 mph

Today
High -- | Low -- °F
--% Chance of Precip.
Yesterday
High -- | Low -- °F
Precip. -- in
Pressure 30.17 in
Visibility 10.0 miles
Clouds Clear
Heat Index 86 °F
Dew Point 69 °F
Humidity 64%
Rainfall in
Snow Depth Not available.
6:22 AM 7:35 PM
Waning Crescent, 23% visible
METAR KACY 271554Z AUTO 09009KT 10SM CLR 30/18 A3017 RMK AO2 SLP216 T03000178
Pressure 30.17 in
Visibility 10.0 miles
Clouds Clear
Heat Index 86 °F
Dew Point 69 °F
Humidity 64%
Rainfall in
Snow Depth Not available.
6:22 AM 7:35 PM
Waning Crescent, 23% visible
METAR KACY 271554Z AUTO 09009KT 10SM CLR 30/18 A3017 RMK AO2 SLP216 T03000178

10-Day Weather Forecast

Almanac

Astronomy

Aug. 27, 2016 Rise Set
Actual Time
Civil Twilight
Nautical Twilight
Astronomical Twilight
Moon
Length of Visible Light
Length of Day
Tomorrow will be .
, % of the Moon is Illuminated

Today's Extremes

State Highs State Lows

Community

WunderPhotos

Upload Photos

1,935,377 photos uploaded!

WunderBlog® & News

Nearby

Air Quality

  Air Quality AQ Index Pollutant
Not available.

Snow Depth

Station Depth Elevation

Earthquake Activity

City Distance Mag. Time & Date
Minimum magnitude displayed is 2.5.

Coastal Water Temperatures

Place Temperature

Stations

Nearby Weather Stations

Station Location Temp. Windchill Dew Point Humidity Wind Precip. Elev Updated Type
                   

Watches & Warnings

There are currently no watches in effect.